createdAt,value
2017-08-22T00:00:42.607Z,81.82
2017-08-22T00:03:10.060Z,80.90
2017-08-22T00:05:37.523Z,81.13
2017-08-22T00:08:05.357Z,82.21
2017-08-22T00:10:32.875Z,83.16
2017-08-22T00:13:00.322Z,82.22
2017-08-22T00:15:27.798Z,81.93
2017-08-22T00:17:55.246Z,81.61
2017-08-22T00:20:22.739Z,81.62
2017-08-22T00:22:50.261Z,80.92
2017-08-22T00:25:17.743Z,80.52
2017-08-22T00:27:45.268Z,80.84
2017-08-22T00:30:12.829Z,80.82
2017-08-22T00:32:40.284Z,81.49
2017-08-22T00:35:07.744Z,81.79
2017-08-22T00:37:35.227Z,81.66
2017-08-22T00:40:02.757Z,81.57
2017-08-22T00:42:30.228Z,81.45
2017-08-22T00:44:57.772Z,81.18
2017-08-22T00:47:25.241Z,80.96
2017-08-22T00:49:52.694Z,81.29
2017-08-22T00:52:20.159Z,81.97
2017-08-22T00:54:47.612Z,80.63
2017-08-22T00:57:15.212Z,82.13
2017-08-22T00:59:43.179Z,81.60
2017-08-22T01:02:10.670Z,82.42
2017-08-22T01:04:38.126Z,82.77
2017-08-22T01:07:05.613Z,82.97
2017-08-22T01:09:33.156Z,83.01
2017-08-22T01:12:01.056Z,82.84
2017-08-22T01:14:28.526Z,83.65
2017-08-22T01:16:55.991Z,82.93
2017-08-22T01:19:23.444Z,82.47
2017-08-22T01:21:50.927Z,82.62
2017-08-22T01:24:18.467Z,81.91
2017-08-22T01:26:45.965Z,81.90
2017-08-22T01:29:13.423Z,82.20
2017-08-22T01:31:40.995Z,82.52
2017-08-22T01:34:08.439Z,82.36
2017-08-22T01:36:36.006Z,82.44
2017-08-22T01:39:03.468Z,82.58
2017-08-22T01:41:30.940Z,82.75
2017-08-22T01:43:58.412Z,82.58
2017-08-22T01:46:25.933Z,82.47
2017-08-22T01:48:53.486Z,82.55
2017-08-22T01:51:20.945Z,82.17
2017-08-22T01:53:48.428Z,82.77
2017-08-22T01:56:15.884Z,82.37
2017-08-22T01:58:43.364Z,82.01
2017-08-22T02:01:10.836Z,82.14
2017-08-22T02:03:38.332Z,81.58
2017-08-22T02:06:05.781Z,81.91
2017-08-22T02:08:33.280Z,82.33
2017-08-22T02:11:00.752Z,82.79
2017-08-22T02:13:28.307Z,83.02
2017-08-22T02:15:55.773Z,82.96
2017-08-22T02:18:23.247Z,83.18
2017-08-22T02:20:50.734Z,83.03
2017-08-22T02:23:18.208Z,82.99
2017-08-22T02:25:45.676Z,82.39
2017-08-22T02:28:13.188Z,82.26
2017-08-22T02:30:40.652Z,82.64
2017-08-22T02:33:08.133Z,82.56
2017-08-22T02:35:35.672Z,82.76
2017-08-22T02:38:03.155Z,83.13
2017-08-22T02:40:30.616Z,83.17
2017-08-22T02:42:58.089Z,83.82
2017-08-22T02:45:25.596Z,82.91
2017-08-22T02:47:53.113Z,82.58
2017-08-22T02:50:20.563Z,82.07
2017-08-22T02:52:48.079Z,83.04
2017-08-22T02:55:15.634Z,82.78
2017-08-22T02:57:43.138Z,82.87
2017-08-22T03:00:10.600Z,83.11
2017-08-22T03:02:38.100Z,83.24
2017-08-22T03:05:05.560Z,82.93
2017-08-22T03:07:33.007Z,83.25
2017-08-22T03:10:00.606Z,83.05
2017-08-22T03:12:28.046Z,83.90
2017-08-22T03:14:55.518Z,83.06
2017-08-22T03:17:23.940Z,82.95
2017-08-22T03:19:51.411Z,83.53
2017-08-22T03:22:18.864Z,83.07
2017-08-22T03:24:46.441Z,82.89
2017-08-22T03:27:13.944Z,83.23
2017-08-22T03:29:41.515Z,83.28
2017-08-22T03:32:08.969Z,83.01
2017-08-22T03:34:36.463Z,83.08
2017-08-22T03:37:03.917Z,83.26
2017-08-22T03:39:31.388Z,82.87
2017-08-22T03:41:58.865Z,83.83
2017-08-22T03:44:26.340Z,83.47
2017-08-22T03:46:53.847Z,83.16
2017-08-22T03:49:21.373Z,82.89
2017-08-22T03:51:48.867Z,83.83
2017-08-22T03:54:16.377Z,83.48
2017-08-22T03:56:43.892Z,83.44
2017-08-22T03:59:11.456Z,82.68
2017-08-22T04:01:39.008Z,83.57
2017-08-22T04:04:06.557Z,83.89
2017-08-22T04:06:34.014Z,82.78
2017-08-22T04:09:01.573Z,82.69
2017-08-22T04:11:29.031Z,82.41
2017-08-22T04:13:56.604Z,83.34
2017-08-22T04:16:24.055Z,83.31
2017-08-22T04:18:51.605Z,83.48
2017-08-22T04:21:19.052Z,82.98
2017-08-22T04:23:46.512Z,82.91
2017-08-22T04:26:13.992Z,83.19
2017-08-22T04:28:41.532Z,83.79
2017-08-22T04:31:09.016Z,83.41
2017-08-22T04:33:36.471Z,83.45
2017-08-22T04:36:04.004Z,82.73
2017-08-22T04:38:31.513Z,84.19
2017-08-22T04:40:59.020Z,84.15
2017-08-22T04:43:26.531Z,83.75
2017-08-22T04:45:54.052Z,83.68
2017-08-22T04:48:21.592Z,83.94
2017-08-22T04:50:49.105Z,83.43
2017-08-22T04:53:16.559Z,83.49
2017-08-22T04:55:44.032Z,83.66
2017-08-22T04:58:11.480Z,83.16
2017-08-22T05:00:38.989Z,83.45
2017-08-22T05:03:06.454Z,84.11
2017-08-22T05:05:33.993Z,84.25
2017-08-22T05:08:01.439Z,84.08
2017-08-22T05:10:28.912Z,83.60
2017-08-22T05:12:56.417Z,83.36
2017-08-22T05:15:23.937Z,81.72
2017-08-22T05:17:51.482Z,81.24
2017-08-22T05:20:18.989Z,80.42
2017-08-22T05:22:46.445Z,79.17
2017-08-22T05:25:13.915Z,79.34
2017-08-22T05:27:41.409Z,78.60
2017-08-22T05:30:08.876Z,78.57
2017-08-22T05:32:36.428Z,77.98
2017-08-22T05:35:03.900Z,76.55
2017-08-22T05:37:31.372Z,76.41
2017-08-22T05:39:58.848Z,74.40
2017-08-22T05:42:26.301Z,73.62
2017-08-22T05:44:54.067Z,74.58
2017-08-22T05:47:21.527Z,73.84
2017-08-22T05:49:48.977Z,73.38
2017-08-22T05:52:16.488Z,72.65
2017-08-22T05:54:43.995Z,72.63
2017-08-22T05:57:11.583Z,72.71
2017-08-22T05:59:39.314Z,73.46
2017-08-22T06:02:07.271Z,74.00
2017-08-22T06:04:34.861Z,72.90
2017-08-22T06:07:02.586Z,72.97
2017-08-22T06:09:30.217Z,73.69
2017-08-22T06:11:57.860Z,75.12
2017-08-22T06:14:25.457Z,75.40
2017-08-22T06:16:53.184Z,76.60
2017-08-22T06:19:20.636Z,75.99
2017-08-22T06:21:48.108Z,76.01
2017-08-22T06:24:15.581Z,76.28
2017-08-22T06:26:43.127Z,76.22
2017-08-22T06:29:10.713Z,76.04
2017-08-22T06:31:38.237Z,76.02
2017-08-22T06:34:05.708Z,75.87
2017-08-22T06:36:33.176Z,75.08
2017-08-22T06:39:00.734Z,74.62
2017-08-22T06:41:28.209Z,76.50
2017-08-22T06:43:55.663Z,76.01
2017-08-22T06:46:23.190Z,76.24
2017-08-22T06:48:50.836Z,76.09
2017-08-22T06:51:18.316Z,75.96
2017-08-22T06:53:45.861Z,77.01
2017-08-22T06:56:13.327Z,77.28
2017-08-22T06:58:40.784Z,76.31
2017-08-22T07:01:08.360Z,76.36
2017-08-22T07:03:35.828Z,76.18
2017-08-22T07:06:03.364Z,76.37
2017-08-22T07:08:30.912Z,75.72
2017-08-22T07:10:58.470Z,75.53
2017-08-22T07:13:26.028Z,75.95
2017-08-22T07:15:53.497Z,75.41
2017-08-22T07:18:20.968Z,75.55
2017-08-22T07:20:48.440Z,75.93
2017-08-22T07:23:15.957Z,74.77
2017-08-22T07:25:43.521Z,73.69
2017-08-22T07:28:11.025Z,73.93
2017-08-22T07:30:38.535Z,73.94
2017-08-22T07:33:06.097Z,73.21
2017-08-22T07:35:33.649Z,72.43
2017-08-22T07:38:01.118Z,73.68
2017-08-22T07:40:28.695Z,71.68
2017-08-22T07:42:56.172Z,70.40
2017-08-22T07:45:23.685Z,70.42
2017-08-22T07:47:53.354Z,69.73
2017-08-22T07:50:20.944Z,68.98
2017-08-22T07:52:48.428Z,68.91
2017-08-22T07:55:15.913Z,68.72
2017-08-22T07:57:43.401Z,68.08
2017-08-22T08:00:10.852Z,67.88
2017-08-22T08:02:38.324Z,69.08
2017-08-22T08:05:05.784Z,69.61
2017-08-22T08:07:33.348Z,70.01
2017-08-22T08:10:00.803Z,70.19
2017-08-22T08:12:28.255Z,68.58
2017-08-22T08:14:55.780Z,69.19
2017-08-22T08:17:24.379Z,69.61
2017-08-22T08:19:51.960Z,68.74
2017-08-22T08:22:20.334Z,69.49
2017-08-22T08:24:47.813Z,68.52
2017-08-22T08:27:15.354Z,68.17
2017-08-22T08:29:42.820Z,69.39
2017-08-22T08:32:10.280Z,69.63
2017-08-22T08:34:38.471Z,68.61
2017-08-22T08:37:06.025Z,67.33
2017-08-22T08:39:33.492Z,67.54
2017-08-22T08:42:01.014Z,67.75
2017-08-22T08:44:28.488Z,67.12
2017-08-22T08:46:56.128Z,66.16
2017-08-22T08:49:23.687Z,64.83
2017-08-22T08:51:51.405Z,64.82
2017-08-22T08:54:18.918Z,64.59
2017-08-22T08:56:46.391Z,63.99
2017-08-22T08:59:14.126Z,63.62
2017-08-22T09:01:41.605Z,63.06
2017-08-22T09:04:09.148Z,61.09
2017-08-22T09:06:36.684Z,60.69
2017-08-22T09:09:04.145Z,60.39
2017-08-22T09:11:31.720Z,60.36
2017-08-22T09:14:00.295Z,58.62
2017-08-22T09:16:27.862Z,57.33
2017-08-22T09:18:55.319Z,58.32
2017-08-22T09:21:22.865Z,56.48
2017-08-22T09:23:50.491Z,57.49
2017-08-22T09:26:17.963Z,56.81
2017-08-22T09:28:45.464Z,56.01
2017-08-22T09:31:12.959Z,55.71
2017-08-22T09:33:40.466Z,56.58
2017-08-22T09:36:07.971Z,56.76
2017-08-22T09:38:35.481Z,58.55
2017-08-22T09:41:03.041Z,56.62
2017-08-22T09:43:30.559Z,56.45
2017-08-22T09:45:58.023Z,57.83
2017-08-22T09:48:25.491Z,56.67
2017-08-22T09:50:53.142Z,55.88
2017-08-22T09:53:20.629Z,54.00
2017-08-22T09:55:48.193Z,54.06
2017-08-22T09:58:15.683Z,52.64
2017-08-22T10:00:43.204Z,52.51
2017-08-22T10:03:10.843Z,52.36
2017-08-22T10:06:14.782Z,50.98
2017-08-22T10:08:42.285Z,49.23
2017-08-22T10:11:09.845Z,49.28
2017-08-22T10:13:37.351Z,49.48
2017-08-22T10:16:04.807Z,47.93
2017-08-22T10:18:32.278Z,48.31
2017-08-22T10:20:59.733Z,49.54
2017-08-22T10:23:27.203Z,46.61
2017-08-22T10:25:54.683Z,47.27
2017-08-22T10:28:22.192Z,47.06
2017-08-22T10:30:49.640Z,45.54
2017-08-22T10:33:17.212Z,45.35
2017-08-22T10:35:44.668Z,45.52
2017-08-22T10:38:12.151Z,44.81
2017-08-22T10:40:39.689Z,44.92
2017-08-22T10:43:07.143Z,43.36
2017-08-22T10:45:34.632Z,47.02
2017-08-22T10:48:02.083Z,46.21
2017-08-22T10:50:29.616Z,45.76
2017-08-22T10:52:57.073Z,45.50
2017-08-22T10:55:24.535Z,45.65
2017-08-22T10:57:52.077Z,45.10
2017-08-22T11:00:19.543Z,43.87
2017-08-22T11:02:47.094Z,43.74
2017-08-22T11:05:14.601Z,43.11
2017-08-22T11:07:42.108Z,43.09
2017-08-22T11:10:09.578Z,42.45
2017-08-22T11:12:37.031Z,42.11
2017-08-22T11:15:04.529Z,40.37
2017-08-22T11:17:31.985Z,38.91
2017-08-22T11:19:59.441Z,39.70
2017-08-22T11:22:26.975Z,40.54
2017-08-22T11:24:54.487Z,41.17
2017-08-22T11:27:21.956Z,40.55
2017-08-22T11:29:49.409Z,41.11
2017-08-22T11:32:16.881Z,40.34
2017-08-22T11:34:44.489Z,41.74
2017-08-22T11:37:12.010Z,39.77
2017-08-22T11:39:39.484Z,40.29
2017-08-22T11:42:06.965Z,39.85
2017-08-22T11:44:34.519Z,39.27
2017-08-22T11:47:01.999Z,37.95
2017-08-22T11:49:29.451Z,38.79
2017-08-22T11:51:56.928Z,38.86
2017-08-22T11:54:24.411Z,38.66
2017-08-22T11:56:51.898Z,37.20
2017-08-22T11:59:19.363Z,37.89
2017-08-22T12:01:46.848Z,40.41
2017-08-22T12:04:14.311Z,40.00
2017-08-22T12:06:41.782Z,40.48
2017-08-22T12:09:09.264Z,40.90
2017-08-22T12:11:36.724Z,40.46
2017-08-22T12:14:04.263Z,41.50
2017-08-22T12:19:24.564Z,39.78
2017-08-22T12:21:52.023Z,39.47
2017-08-22T12:24:19.495Z,39.81
2017-08-22T12:26:47.031Z,40.27
2017-08-22T12:29:14.505Z,39.36
2017-08-22T12:31:42.378Z,39.97
2017-08-22T12:34:09.868Z,39.52
2017-08-22T12:36:37.320Z,38.88
2017-08-22T12:39:04.829Z,38.66
2017-08-22T12:41:32.289Z,39.16
2017-08-22T12:44:00.136Z,38.71
2017-08-22T12:46:27.592Z,38.74
2017-08-22T12:48:55.073Z,38.79
2017-08-22T12:51:22.611Z,39.13
2017-08-22T12:53:50.181Z,39.27
2017-08-22T12:56:17.635Z,41.19
2017-08-22T12:58:45.109Z,39.72
2017-08-22T13:01:12.555Z,39.28
2017-08-22T13:03:40.049Z,39.51
2017-08-22T13:06:07.563Z,40.18
2017-08-22T13:08:36.113Z,39.79
2017-08-22T13:11:03.601Z,40.11
2017-08-22T13:13:31.112Z,40.44
2017-08-22T13:15:58.576Z,39.18
2017-08-22T13:18:26.076Z,38.04
2017-08-22T13:20:53.531Z,39.80
2017-08-22T13:23:21.064Z,39.72
2017-08-22T13:25:48.656Z,39.08
2017-08-22T13:28:16.108Z,38.17
2017-08-22T13:30:43.596Z,38.11
2017-08-22T13:33:11.063Z,38.78
2017-08-22T13:35:38.791Z,38.22
2017-08-22T13:38:06.334Z,38.36
2017-08-22T13:40:33.803Z,38.23
2017-08-22T13:43:01.353Z,38.77
2017-08-22T13:45:28.912Z,39.06
2017-08-22T13:47:56.481Z,38.49
2017-08-22T13:50:23.946Z,38.50
2017-08-22T13:52:51.476Z,37.88
2017-08-22T13:55:19.046Z,38.59
2017-08-22T13:57:46.607Z,37.26
2017-08-22T14:00:14.180Z,38.37
2017-08-22T14:02:41.948Z,37.44
2017-08-22T14:05:09.485Z,38.61
2017-08-22T14:07:36.933Z,38.82
2017-08-22T14:10:04.375Z,38.30
2017-08-22T14:12:31.844Z,40.54
2017-08-22T14:14:59.564Z,39.53
2017-08-22T14:17:27.056Z,39.18
2017-08-22T14:19:55.672Z,38.45
2017-08-22T14:22:23.199Z,40.27
2017-08-22T14:24:50.677Z,40.26
2017-08-22T14:27:18.183Z,39.86
2017-08-22T14:29:45.639Z,40.05
2017-08-22T14:32:13.109Z,39.80
2017-08-22T14:34:40.601Z,40.62
2017-08-22T14:37:08.084Z,39.63
2017-08-22T14:39:35.628Z,39.45
2017-08-22T14:42:03.114Z,39.72
2017-08-22T14:44:30.569Z,39.64
2017-08-22T14:46:58.045Z,39.29
2017-08-22T14:49:25.544Z,38.83
2017-08-22T14:51:53.029Z,38.98
2017-08-22T14:54:22.663Z,38.89
2017-08-22T14:56:50.228Z,39.67
2017-08-22T14:59:17.737Z,38.76
2017-08-22T15:01:46.662Z,39.46
2017-08-22T15:04:14.284Z,40.09
2017-08-22T15:06:41.813Z,40.08
2017-08-22T15:09:09.263Z,39.82
2017-08-22T15:11:36.748Z,39.72
2017-08-22T15:14:04.216Z,38.93
2017-08-22T15:16:31.716Z,40.82
2017-08-22T15:18:59.235Z,40.16
2017-08-22T15:21:26.792Z,39.32
2017-08-22T15:23:54.348Z,38.93
2017-08-22T15:26:21.916Z,38.23
2017-08-22T15:28:49.865Z,38.46
2017-08-22T15:31:17.328Z,38.87
2017-08-22T15:33:44.833Z,40.78
2017-08-22T15:36:12.298Z,41.14
2017-08-22T15:38:39.777Z,39.90
2017-08-22T15:41:07.268Z,42.05
2017-08-22T15:43:34.754Z,42.06
2017-08-22T15:46:02.203Z,40.95
2017-08-22T15:48:29.725Z,43.26
2017-08-22T15:50:57.206Z,43.26
2017-08-22T15:53:25.045Z,40.98
2017-08-22T15:55:52.515Z,41.72
2017-08-22T15:58:20.067Z,41.54
2017-08-22T16:00:47.586Z,41.79
2017-08-22T16:03:15.065Z,40.51
2017-08-22T16:05:42.591Z,40.79
2017-08-22T16:08:10.069Z,41.42
2017-08-22T16:10:37.546Z,40.61
2017-08-22T16:13:05.135Z,40.71
2017-08-22T16:15:32.682Z,40.42
2017-08-22T16:18:00.204Z,42.15
2017-08-22T16:20:27.680Z,41.11
2017-08-22T16:22:55.119Z,40.80
2017-08-22T16:25:22.616Z,41.37
2017-08-22T16:27:50.063Z,40.64
2017-08-22T16:30:17.539Z,40.39
2017-08-22T16:32:45.002Z,40.85
2017-08-22T16:35:12.525Z,40.19
2017-08-22T16:37:39.975Z,40.88
2017-08-22T16:40:07.453Z,40.29
2017-08-22T16:42:35.103Z,40.76
2017-08-22T16:45:02.669Z,40.96
2017-08-22T16:47:30.121Z,41.53
2017-08-22T16:49:57.619Z,41.71
2017-08-22T16:52:25.087Z,41.90
2017-08-22T16:54:52.569Z,42.35
2017-08-22T16:57:20.037Z,41.84
2017-08-22T16:59:47.546Z,42.57
2017-08-22T17:02:15.001Z,41.24
2017-08-22T17:04:42.476Z,41.28
2017-08-22T17:07:09.979Z,41.78
2017-08-22T17:09:37.476Z,40.88
2017-08-22T17:12:04.989Z,41.54
2017-08-22T17:14:32.556Z,42.53
2017-08-22T17:17:00.099Z,43.40
2017-08-22T17:19:28.291Z,43.81
2017-08-22T17:21:55.833Z,44.34
2017-08-22T17:24:23.397Z,44.61
2017-08-22T17:26:50.845Z,43.10
2017-08-22T17:29:18.404Z,43.92
2017-08-22T17:31:45.963Z,44.29
2017-08-22T17:34:13.465Z,44.46
2017-08-22T17:36:40.977Z,44.17
2017-08-22T17:39:08.419Z,45.53
2017-08-22T17:41:35.899Z,45.69
2017-08-22T17:44:03.352Z,44.51
2017-08-22T17:46:30.859Z,44.87
2017-08-22T17:48:58.367Z,45.63
2017-08-22T17:51:25.886Z,46.69
2017-08-22T17:53:53.357Z,50.04
2017-08-22T17:56:20.880Z,51.57
2017-08-22T17:58:48.352Z,52.68
2017-08-22T18:01:15.852Z,53.13
2017-08-22T18:03:43.423Z,53.76
2017-08-22T18:06:10.978Z,54.03
2017-08-22T18:08:38.525Z,54.18
2017-08-22T18:11:06.100Z,55.23
2017-08-22T18:13:33.596Z,55.53
2017-08-22T18:16:01.096Z,55.44
2017-08-22T18:18:28.587Z,55.79
2017-08-22T18:20:56.123Z,56.18
2017-08-22T18:23:23.587Z,56.06
2017-08-22T18:25:51.105Z,56.70
2017-08-22T18:28:18.607Z,57.40
2017-08-22T18:30:46.148Z,58.86
2017-08-22T18:33:13.621Z,59.91
2017-08-22T18:35:41.501Z,59.72
2017-08-22T18:38:09.029Z,59.33
2017-08-22T18:40:36.512Z,58.58
2017-08-22T18:43:03.975Z,58.39
2017-08-22T18:45:31.459Z,58.69
2017-08-22T18:47:58.964Z,58.49
2017-08-22T18:50:26.439Z,58.44
2017-08-22T18:52:53.892Z,58.59
2017-08-22T18:55:21.439Z,58.83
2017-08-22T18:57:48.983Z,59.26
2017-08-22T19:00:16.427Z,59.46
2017-08-22T19:02:44.009Z,59.63
2017-08-22T19:05:11.532Z,59.50
2017-08-22T19:07:39.002Z,59.58
2017-08-22T19:10:06.503Z,58.94
2017-08-22T19:12:34.039Z,58.52
2017-08-22T19:15:01.539Z,59.32
2017-08-22T19:17:29.044Z,59.37
2017-08-22T19:19:56.513Z,59.74
2017-08-22T19:22:24.008Z,59.35
2017-08-22T19:24:51.516Z,58.88
2017-08-22T19:27:19.003Z,59.65
2017-08-22T19:29:46.524Z,60.78
2017-08-22T19:32:14.007Z,61.24
2017-08-22T19:34:41.480Z,62.84
2017-08-22T19:37:08.999Z,63.00
2017-08-22T19:39:36.460Z,64.04
2017-08-22T19:42:03.931Z,64.41
2017-08-22T19:44:31.474Z,63.73
2017-08-22T19:46:58.984Z,64.02
2017-08-22T19:49:27.277Z,63.87
2017-08-22T19:51:54.869Z,63.68
2017-08-22T19:54:22.323Z,63.27
2017-08-22T19:56:49.817Z,63.37
2017-08-22T19:59:17.306Z,64.70
2017-08-22T20:01:44.801Z,65.14
2017-08-22T20:04:12.617Z,64.63
2017-08-22T20:06:40.361Z,64.29
2017-08-22T20:09:08.069Z,64.06
2017-08-22T20:11:35.578Z,65.10
2017-08-22T20:14:03.250Z,65.54
2017-08-22T20:16:30.938Z,66.08
2017-08-22T20:18:58.525Z,67.42
2017-08-22T20:21:26.217Z,66.46
2017-08-22T20:23:53.748Z,66.35
2017-08-22T20:26:21.468Z,66.15
2017-08-22T20:28:48.985Z,66.51
2017-08-22T20:31:16.534Z,66.31
2017-08-22T20:33:44.005Z,66.33
2017-08-22T20:36:11.534Z,66.83
2017-08-22T20:38:39.155Z,67.25
2017-08-22T20:41:06.657Z,65.89
2017-08-22T20:43:34.481Z,65.49
2017-08-22T20:46:02.351Z,64.63
2017-08-22T20:48:30.266Z,65.59
2017-08-22T20:50:58.167Z,66.79
2017-08-22T20:53:25.834Z,67.25
2017-08-22T20:55:53.394Z,67.49
2017-08-22T20:58:21.003Z,66.21
2017-08-22T21:00:48.458Z,65.90
2017-08-22T21:03:16.017Z,65.56
2017-08-22T21:05:43.833Z,66.71
2017-08-22T21:08:11.734Z,67.38
2017-08-22T21:10:39.205Z,67.94
2017-08-22T21:13:06.687Z,67.97
2017-08-22T21:15:34.231Z,68.19
2017-08-22T21:18:01.793Z,68.55
2017-08-22T21:20:29.403Z,67.62
2017-08-22T21:22:56.987Z,68.96
2017-08-22T21:25:24.445Z,69.40
2017-08-22T21:27:51.929Z,69.96
2017-08-22T21:30:19.495Z,70.62
2017-08-22T21:32:47.031Z,70.39
2017-08-22T21:35:14.613Z,70.65
2017-08-22T21:37:42.068Z,70.16
2017-08-22T21:40:09.599Z,71.64
2017-08-22T21:42:37.067Z,71.50
2017-08-22T21:45:04.641Z,71.91
2017-08-22T21:47:32.093Z,72.89
2017-08-22T21:49:59.643Z,72.42
2017-08-22T21:52:27.193Z,73.11
2017-08-22T21:54:54.675Z,74.90
2017-08-22T21:57:22.125Z,75.69
2017-08-22T21:59:49.573Z,75.02
2017-08-22T22:02:17.120Z,75.65
2017-08-22T22:04:44.671Z,76.19
2017-08-22T22:07:12.139Z,76.83
2017-08-22T22:09:39.687Z,75.40
2017-08-22T22:12:07.253Z,75.89
2017-08-22T22:14:34.808Z,75.94
2017-08-22T22:17:02.367Z,75.86
2017-08-22T22:19:29.825Z,75.75
2017-08-22T22:21:57.391Z,75.59
2017-08-22T22:24:24.956Z,75.92
2017-08-22T22:26:52.513Z,77.73
2017-08-22T22:29:19.988Z,76.57
2017-08-22T22:31:47.493Z,77.23
2017-08-22T22:34:14.957Z,76.83
2017-08-22T22:36:42.588Z,76.24
2017-08-22T22:39:10.096Z,75.79
2017-08-22T22:41:37.659Z,76.01
2017-08-22T22:44:05.391Z,76.96
2017-08-22T22:46:32.869Z,76.73
2017-08-22T22:49:00.331Z,76.27
2017-08-22T22:51:27.800Z,75.36
2017-08-22T22:53:55.267Z,76.58
2017-08-22T22:56:22.779Z,76.45
2017-08-22T22:58:50.308Z,76.67
2017-08-22T23:01:17.810Z,76.31
2017-08-22T23:03:45.259Z,76.45
2017-08-22T23:06:12.723Z,76.22
2017-08-22T23:08:40.572Z,76.16
2017-08-22T23:11:08.061Z,77.06
2017-08-22T23:13:35.580Z,77.86
2017-08-22T23:16:03.064Z,78.58
2017-08-22T23:18:30.620Z,78.88
2017-08-22T23:20:58.079Z,77.67
2017-08-22T23:23:25.552Z,78.98
2017-08-22T23:25:53.092Z,79.71
2017-08-22T23:28:20.643Z,79.85
2017-08-22T23:30:48.117Z,80.33
2017-08-22T23:33:15.670Z,81.07
2017-08-22T23:35:43.111Z,79.89
2017-08-22T23:38:10.583Z,80.85
2017-08-22T23:40:38.177Z,80.23
2017-08-22T23:43:05.712Z,80.01
2017-08-22T23:45:33.171Z,79.99
2017-08-22T23:48:00.720Z,79.22
2017-08-22T23:50:28.183Z,79.72
2017-08-22T23:52:55.634Z,80.04
2017-08-22T23:55:23.159Z,81.46
2017-08-22T23:57:50.615Z,80.96
